Time;durP1;ratioP1;P1;durP2;ratioP2;P2;SDS_P1;SDS_P2;PMS_P1;PMS_P2;Temp;Humidity;BMP_temperature;BMP_pressure;BME280_temperature;BME280_humidity;BME280_pressure;Samples;Min_cycle;Max_cycle;Signal;HPM_P1;HPM_P2
2021/09/08 00:01:04;;;;;;;;;12.00;10.75;;;;;;;;4996827;28;45546;-72
2021/09/08 00:03:29;;;;;;;;;12.00;11.50;;;;;;;;4995154;28;46174;-72
2021/09/08 00:05:55;;;;;;;;;16.50;13.25;;;;;;;;4997510;28;45466;-72
2021/09/08 00:08:20;;;;;;;;;13.25;12.25;;;;;;;;4995825;28;45572;-72
2021/09/08 00:10:46;;;;;;;;;13.00;13.00;;;;;;;;4996808;28;45390;-72
2021/09/08 00:13:11;;;;;;;;;15.25;14.00;;;;;;;;4996610;28;46231;-72
2021/09/08 00:15:36;;;;;;;;;17.50;14.25;;;;;;;;4996717;28;45976;-72
2021/09/08 00:18:01;;;;;;;;;14.00;13.25;;;;;;;;4996818;28;45635;-72
2021/09/08 00:20:26;;;;;;;;;13.75;11.00;;;;;;;;4998718;28;45586;-72
2021/09/08 00:22:52;;;;;;;;;18.00;14.75;;;;;;;;4995622;28;46077;-72
2021/09/08 00:25:17;;;;;;;;;14.75;12.50;;;;;;;;4996254;28;45635;-72
2021/09/08 00:27:42;;;;;;;;;12.00;10.25;;;;;;;;4996276;28;45418;-72
2021/09/08 00:30:08;;;;;;;;;18.25;15.25;;;;;;;;4996534;28;45343;-72
2021/09/08 00:32:34;;;;;;;;;16.50;14.50;;;;;;;;4998448;28;45399;-72
2021/09/08 00:35:00;;;;;;;;;9.75;9.75;;;;;;;;4995989;28;45519;-72
2021/09/08 00:37:25;;;;;;;;;12.50;11.25;;;;;;;;4996091;28;45312;-72
2021/09/08 00:39:50;;;;;;;;;16.00;15.00;;;;;;;;4996365;28;45379;-72
2021/09/08 00:42:17;;;;;;;;;15.50;15.50;;;;;;;;4994915;28;46005;-71
2021/09/08 00:44:42;;;;;;;;;17.25;15.50;;;;;;;;4998430;28;45372;-72
2021/09/08 00:47:10;;;;;;;;;15.00;13.50;;;;;;;;4994654;28;45540;-73
2021/09/08 00:49:36;;;;;;;;;15.50;14.25;;;;;;;;4995981;28;45320;-72
2021/09/08 00:52:05;;;;;;;;;11.75;10.50;;;;;;;;4995620;28;46178;-72
2021/09/08 00:54:32;;;;;;;;;19.00;16.25;;;;;;;;4996101;28;45377;-72
2021/09/08 00:56:58;;;;;;;;;14.25;14.25;;;;;;;;4996611;28;45386;-72
2021/09/08 00:59:23;;;;;;;;;13.75;13.75;;;;;;;;4997553;28;45433;-70
2021/09/08 01:01:48;;;;;;;;;14.25;14.25;;;;;;;;4995700;28;46953;-72
2021/09/08 01:04:17;;;;;;;;;13.75;12.75;;;;;;;;4995868;28;45364;-69
2021/09/08 01:06:42;;;;;;;;;14.25;13.00;;;;;;;;4992482;28;45383;-70
2021/09/08 01:09:08;;;;;;;;;15.25;13.75;;;;;;;;4992492;28;45527;-70
2021/09/08 01:11:33;;;;;;;;;13.25;12.00;;;;;;;;4994490;28;45390;-72
2021/09/08 01:13:58;;;;;;;;;14.00;12.50;;;;;;;;4992359;28;45373;-72
2021/09/08 01:16:24;;;;;;;;;12.50;11.75;;;;;;;;4992441;28;45585;-71
2021/09/08 01:18:49;;;;;;;;;15.00;14.25;;;;;;;;4992586;28;45326;-71
2021/09/08 01:21:14;;;;;;;;;13.75;13.75;;;;;;;;4975556;28;46249;-72
2021/09/08 01:23:39;;;;;;;;;16.75;12.00;;;;;;;;4994070;28;45449;-70
2021/09/08 01:26:04;;;;;;;;;11.75;11.75;;;;;;;;4990933;28;45441;-70
2021/09/08 01:28:30;;;;;;;;;13.00;12.75;;;;;;;;4992269;28;45461;-72
2021/09/08 01:30:56;;;;;;;;;16.25;13.25;;;;;;;;4992098;28;46205;-72
2021/09/08 01:33:21;;;;;;;;;19.00;14.75;;;;;;;;4992490;28;45424;-71
2021/09/08 01:35:47;;;;;;;;;14.00;11.75;;;;;;;;4993920;28;45442;-71
2021/09/08 01:38:12;;;;;;;;;14.50;14.50;;;;;;;;4992647;28;45366;-72
2021/09/08 01:40:37;;;;;;;;;16.00;14.75;;;;;;;;4992126;28;45489;-72
2021/09/08 01:43:02;;;;;;;;;17.00;16.75;;;;;;;;4991842;28;45566;-72
2021/09/08 01:45:27;;;;;;;;;12.75;12.75;;;;;;;;4990772;28;45376;-71
2021/09/08 01:47:54;;;;;;;;;15.00;12.00;;;;;;;;4993396;28;45399;-70
2021/09/08 01:50:20;;;;;;;;;10.75;10.75;;;;;;;;4992287;28;46205;-69
2021/09/08 01:52:45;;;;;;;;;15.25;13.75;;;;;;;;4991696;28;45401;-70
2021/09/08 01:55:10;;;;;;;;;13.25;12.50;;;;;;;;4991934;28;45329;-70
2021/09/08 01:57:36;;;;;;;;;16.75;15.25;;;;;;;;4992074;28;45533;-70
2021/09/08 02:00:02;;;;;;;;;17.25;14.00;;;;;;;;4992510;28;46687;-70
2021/09/08 02:02:27;;;;;;;;;14.25;10.75;;;;;;;;4991668;28;45422;-70
2021/09/08 02:04:52;;;;;;;;;17.50;14.75;;;;;;;;4989816;28;45518;-70
2021/09/08 02:07:17;;;;;;;;;17.00;14.75;;;;;;;;4992082;28;45332;-70
2021/09/08 02:09:43;;;;;;;;;14.00;12.00;;;;;;;;4991825;28;45473;-70
2021/09/08 02:12:08;;;;;;;;;17.25;14.25;;;;;;;;4991818;28;45621;-70
2021/09/08 02:14:33;;;;;;;;;13.00;13.00;;;;;;;;4994271;28;45456;-72
2021/09/08 02:16:59;;;;;;;;;15.75;13.75;;;;;;;;4990929;28;45456;-71
2021/09/08 02:19:24;;;;;;;;;12.25;12.00;;;;;;;;4990295;28;46085;-72
2021/09/08 02:21:49;;;;;;;;;16.50;15.50;;;;;;;;4991828;28;45391;-72
2021/09/08 02:24:15;;;;;;;;;17.00;15.75;;;;;;;;4958569;28;45365;-72
2021/09/08 02:26:40;;;;;;;;;13.50;11.25;;;;;;;;4993744;28;45579;-72
2021/09/08 02:29:05;;;;;;;;;18.00;14.50;;;;;;;;4991365;28;47128;-71
2021/09/08 02:31:31;;;;;;;;;14.75;14.75;;;;;;;;4991146;28;45374;-71
2021/09/08 02:33:57;;;;;;;;;16.00;13.75;;;;;;;;4991138;28;45487;-72
2021/09/08 02:36:23;;;;;;;;;15.50;14.00;;;;;;;;4991458;28;45457;-71
2021/09/08 02:38:48;;;;;;;;;19.75;15.75;;;;;;;;4975354;28;46169;-71
2021/09/08 02:41:13;;;;;;;;;16.25;15.25;;;;;;;;4990363;28;45412;-72
2021/09/08 02:43:39;;;;;;;;;14.75;13.75;;;;;;;;4989825;28;45397;-71
2021/09/08 02:46:04;;;;;;;;;17.75;15.75;;;;;;;;4991643;28;45350;-72
2021/09/08 02:48:30;;;;;;;;;16.00;15.75;;;;;;;;4990314;28;46231;-72
2021/09/08 02:50:55;;;;;;;;;15.50;14.00;;;;;;;;4991318;28;45479;-71
2021/09/08 02:53:20;;;;;;;;;18.50;14.50;;;;;;;;4992339;28;45394;-71
2021/09/08 02:55:46;;;;;;;;;15.25;15.25;;;;;;;;4990527;28;45499;-71
2021/09/08 02:58:11;;;;;;;;;18.75;16.50;;;;;;;;4990890;28;46270;-71
2021/09/08 03:00:36;;;;;;;;;18.50;16.00;;;;;;;;4991092;28;45778;-71
2021/09/08 03:03:01;;;;;;;;;19.00;18.00;;;;;;;;4990785;28;45419;-71
2021/09/08 03:05:27;;;;;;;;;15.50;13.25;;;;;;;;4975199;28;45442;-71
2021/09/08 03:07:52;;;;;;;;;19.75;16.00;;;;;;;;4990915;28;45446;-71
2021/09/08 03:10:17;;;;;;;;;17.75;15.50;;;;;;;;4990799;28;45362;-72
2021/09/08 03:12:42;;;;;;;;;16.75;15.75;;;;;;;;4991056;28;45493;-71
2021/09/08 03:15:07;;;;;;;;;16.75;16.25;;;;;;;;4990766;28;45419;-71
2021/09/08 03:17:33;;;;;;;;;16.75;14.50;;;;;;;;4992405;28;45595;-71
2021/09/08 03:19:58;;;;;;;;;14.75;13.25;;;;;;;;4989003;28;45553;-71
2021/09/08 03:22:23;;;;;;;;;16.75;15.75;;;;;;;;4989456;28;45382;-71
2021/09/08 03:24:48;;;;;;;;;16.25;16.00;;;;;;;;4990649;28;45486;-71
2021/09/08 03:27:14;;;;;;;;;20.25;16.25;;;;;;;;4973002;28;48168;-71
2021/09/08 03:29:39;;;;;;;;;18.50;17.00;;;;;;;;4991983;28;45334;-70
2021/09/08 03:32:04;;;;;;;;;18.50;17.50;;;;;;;;4989976;28;45331;-70
2021/09/08 03:34:29;;;;;;;;;19.25;17.25;;;;;;;;4990612;28;45308;-70
2021/09/08 03:36:55;;;;;;;;;16.75;16.75;;;;;;;;4990220;28;46174;-70
2021/09/08 03:39:20;;;;;;;;;17.50;16.75;;;;;;;;4990431;28;45528;-70
2021/09/08 03:41:45;;;;;;;;;17.00;16.75;;;;;;;;4992238;28;45413;-70
2021/09/08 03:44:10;;;;;;;;;16.75;15.00;;;;;;;;4990262;28;45311;-70
2021/09/08 03:46:35;;;;;;;;;16.25;14.00;;;;;;;;4989315;28;46058;-70
2021/09/08 03:49:01;;;;;;;;;21.50;17.50;;;;;;;;4990020;28;45427;-71
2021/09/08 03:51:26;;;;;;;;;19.25;14.75;;;;;;;;4989913;28;45481;-71
2021/09/08 03:53:51;;;;;;;;;14.00;14.00;;;;;;;;4991637;28;45322;-71
2021/09/08 03:56:16;;;;;;;;;22.75;19.25;;;;;;;;4990493;28;46093;-70
2021/09/08 03:58:41;;;;;;;;;16.75;15.50;;;;;;;;4988519;28;45391;-70
2021/09/08 04:01:06;;;;;;;;;17.00;15.00;;;;;;;;4988581;28;45540;-71
2021/09/08 04:03:32;;;;;;;;;19.75;18.75;;;;;;;;4989526;28;45716;-71
2021/09/08 04:05:57;;;;;;;;;18.00;14.50;;;;;;;;4990154;28;46367;-71
2021/09/08 04:08:22;;;;;;;;;21.75;16.50;;;;;;;;4991762;28;45488;-71
2021/09/08 04:10:47;;;;;;;;;21.00;18.25;;;;;;;;4989682;28;45226;-71
2021/09/08 04:13:12;;;;;;;;;19.00;18.75;;;;;;;;4989843;28;45162;-71
2021/09/08 04:15:38;;;;;;;;;37.00;31.75;;;;;;;;4989023;28;45494;-71
2021/09/08 04:18:03;;;;;;;;;36.50;32.00;;;;;;;;4989723;28;45402;-71
2021/09/08 04:20:28;;;;;;;;;16.25;16.00;;;;;;;;4990806;28;45284;-71
2021/09/08 04:22:53;;;;;;;;;22.50;20.25;;;;;;;;4989110;28;45568;-71
2021/09/08 04:25:19;;;;;;;;;22.25;21.50;;;;;;;;4989229;28;45430;-71
2021/09/08 04:27:44;;;;;;;;;21.00;20.25;;;;;;;;4989458;28;45285;-71
2021/09/08 04:30:09;;;;;;;;;23.00;18.50;;;;;;;;4988779;28;45277;-71
2021/09/08 04:32:34;;;;;;;;;21.25;20.25;;;;;;;;4990551;28;45363;-71
2021/09/08 04:35:00;;;;;;;;;20.50;19.50;;;;;;;;4988999;28;45450;-72
2021/09/08 04:37:25;;;;;;;;;22.50;21.50;;;;;;;;4987742;28;45257;-71
2021/09/08 04:39:50;;;;;;;;;24.25;21.50;;;;;;;;4987718;28;45421;-71
2021/09/08 04:42:15;;;;;;;;;33.75;29.50;;;;;;;;4990783;28;45567;-72
2021/09/08 04:44:41;;;;;;;;;28.25;23.25;;;;;;;;4993497;28;45323;-71
2021/09/08 04:47:07;;;;;;;;;36.00;31.25;;;;;;;;4991760;28;45529;-71
2021/09/08 04:49:32;;;;;;;;;29.75;27.25;;;;;;;;4991275;28;45346;-71
2021/09/08 04:51:57;;;;;;;;;23.50;20.75;;;;;;;;4991860;28;45354;-72
2021/09/08 04:54:22;;;;;;;;;19.75;19.00;;;;;;;;4991578;28;47084;-71
2021/09/08 04:56:47;;;;;;;;;27.00;24.75;;;;;;;;4992952;28;45461;-72
2021/09/08 04:59:12;;;;;;;;;29.50;23.00;;;;;;;;4991873;28;45461;-72
2021/09/08 05:01:38;;;;;;;;;25.25;24.00;;;;;;;;4973441;28;45497;-70
2021/09/08 05:04:03;;;;;;;;;24.00;21.50;;;;;;;;4991111;28;46072;-71
2021/09/08 05:06:28;;;;;;;;;26.50;24.25;;;;;;;;4991293;28;45378;-71
2021/09/08 05:08:53;;;;;;;;;26.75;22.50;;;;;;;;4992371;28;45310;-72
2021/09/08 05:11:19;;;;;;;;;20.25;18.75;;;;;;;;4992460;28;45766;-72
2021/09/08 05:13:44;;;;;;;;;22.75;21.00;;;;;;;;4990879;28;46053;-72
2021/09/08 05:16:09;;;;;;;;;27.25;23.50;;;;;;;;4988699;28;45371;-72
2021/09/08 05:18:35;;;;;;;;;23.00;23.00;;;;;;;;4972017;28;45497;-71
2021/09/08 05:21:00;;;;;;;;;20.25;19.00;;;;;;;;4991434;28;45310;-72
2021/09/08 05:23:25;;;;;;;;;23.00;22.00;;;;;;;;4990916;28;46189;-73
2021/09/08 05:25:50;;;;;;;;;23.00;22.50;;;;;;;;4990807;28;45437;-72
2021/09/08 05:28:16;;;;;;;;;33.00;26.75;;;;;;;;4972690;28;45442;-71
2021/09/08 05:30:41;;;;;;;;;27.25;24.00;;;;;;;;4990614;28;45414;-71
2021/09/08 05:33:07;;;;;;;;;25.75;24.00;;;;;;;;4990253;28;45491;-72
2021/09/08 05:35:32;;;;;;;;;17.25;15.50;;;;;;;;4992171;28;45301;-72
2021/09/08 05:37:57;;;;;;;;;26.25;24.00;;;;;;;;4990373;28;45489;-72
2021/09/08 05:40:22;;;;;;;;;29.50;25.00;;;;;;;;5012404;27;45641;-71
2021/09/08 05:42:48;;;;;;;;;29.50;25.50;;;;;;;;5035447;27;46074;-71
2021/09/08 05:45:13;;;;;;;;;28.25;27.75;;;;;;;;5038385;27;45376;-72
2021/09/08 05:47:38;;;;;;;;;32.75;30.50;;;;;;;;5047048;27;45322;-72
2021/09/08 05:50:04;;;;;;;;;33.50;29.25;;;;;;;;5037010;27;45319;-73
2021/09/08 05:52:29;;;;;;;;;26.75;21.75;;;;;;;;5018982;27;46100;-71
2021/09/08 05:54:54;;;;;;;;;24.00;22.50;;;;;;;;4990029;28;45548;-71
2021/09/08 05:57:19;;;;;;;;;24.00;21.50;;;;;;;;4971123;28;45331;-71
2021/09/08 05:59:44;;;;;;;;;27.50;25.00;;;;;;;;4992689;28;45295;-72
2021/09/08 06:02:10;;;;;;;;;28.50;26.25;;;;;;;;4989872;28;45602;-72
2021/09/08 06:04:35;;;;;;;;;31.75;28.25;;;;;;;;4990410;28;45478;-72
2021/09/08 06:07:00;;;;;;;;;23.25;22.00;;;;;;;;4990018;28;45551;-72
2021/09/08 06:09:25;;;;;;;;;28.50;25.75;;;;;;;;4990120;28;46008;-72
2021/09/08 06:11:54;;;;;;;;;30.75;26.50;;;;;;;;4991229;27;46258;-72
2021/09/08 06:14:20;;;;;;;;;36.75;29.00;;;;;;;;4990687;28;45470;-73
2021/09/08 06:16:45;;;;;;;;;25.50;24.50;;;;;;;;4989879;28;45555;-74
2021/09/08 06:19:10;;;;;;;;;19.25;18.25;;;;;;;;5022111;27;45234;-74
2021/09/08 06:21:35;;;;;;;;;23.00;20.50;;;;;;;;4989499;28;45955;-73
2021/09/08 06:24:00;;;;;;;;;23.50;23.50;;;;;;;;4989449;28;45373;-75
2021/09/08 06:26:26;;;;;;;;;23.50;21.00;;;;;;;;4991344;28;45312;-74
2021/09/08 06:28:52;;;;;;;;;24.25;20.75;;;;;;;;4984435;28;45483;-73
2021/09/08 06:31:18;;;;;;;;;26.50;23.50;;;;;;;;4989454;28;46725;-73
2021/09/08 06:33:44;;;;;;;;;23.25;19.50;;;;;;;;4988468;28;45356;-74
2021/09/08 06:36:09;;;;;;;;;28.00;22.00;;;;;;;;4989235;28;45280;-73
2021/09/08 06:38:34;;;;;;;;;29.50;23.50;;;;;;;;4990758;28;45284;-73
2021/09/08 06:41:00;;;;;;;;;25.00;23.50;;;;;;;;4989062;28;45473;-73
2021/09/08 06:43:25;;;;;;;;;20.75;20.75;;;;;;;;4989043;28;45442;-74
2021/09/08 06:45:51;;;;;;;;;19.00;18.25;;;;;;;;4988989;28;45493;-73
2021/09/08 06:48:16;;;;;;;;;21.75;20.50;;;;;;;;4971346;28;45737;-75
2021/09/08 06:50:41;;;;;;;;;20.50;18.25;;;;;;;;4990366;27;45450;-75
2021/09/08 06:53:07;;;;;;;;;18.00;16.75;;;;;;;;4986334;28;45439;-76
2021/09/08 06:55:32;;;;;;;;;20.00;20.00;;;;;;;;4984129;27;45844;-75
2021/09/08 06:57:57;;;;;;;;;18.50;18.50;;;;;;;;5033583;27;45899;-75
2021/09/08 07:00:22;;;;;;;;;23.50;22.50;;;;;;;;4988564;28;47158;-70
2021/09/08 07:02:48;;;;;;;;;18.75;16.75;;;;;;;;4989590;28;45349;-72
2021/09/08 07:05:13;;;;;;;;;22.00;20.50;;;;;;;;4969407;28;45498;-73
2021/09/08 07:07:38;;;;;;;;;18.25;17.75;;;;;;;;4988153;27;45377;-74
2021/09/08 07:10:03;;;;;;;;;23.50;21.00;;;;;;;;4988739;28;45315;-74
2021/09/08 07:12:29;;;;;;;;;20.00;17.00;;;;;;;;4987567;28;45422;-73
2021/09/08 07:14:54;;;;;;;;;17.00;17.00;;;;;;;;4989654;28;45421;-73
2021/09/08 07:17:19;;;;;;;;;23.75;18.25;;;;;;;;4987544;28;45340;-74
2021/09/08 07:19:44;;;;;;;;;20.75;20.75;;;;;;;;4988550;28;45374;-74
2021/09/08 07:22:09;;;;;;;;;24.25;22.75;;;;;;;;4988187;28;45720;-73
2021/09/08 07:24:35;;;;;;;;;20.50;17.25;;;;;;;;4989099;27;45484;-73
2021/09/08 07:27:00;;;;;;;;;18.00;18.00;;;;;;;;4981609;28;45418;-73
2021/09/08 07:29:25;;;;;;;;;18.25;16.50;;;;;;;;4988102;28;45966;-72
2021/09/08 07:31:51;;;;;;;;;18.25;18.25;;;;;;;;4988966;28;45404;-72
2021/09/08 07:34:16;;;;;;;;;20.75;19.75;;;;;;;;4988681;28;45526;-74
2021/09/08 07:36:42;;;;;;;;;18.50;17.75;;;;;;;;4988480;28;45438;-74
2021/09/08 07:39:10;;;;;;;;;18.00;17.50;;;;;;;;4988694;28;46783;-81
2021/09/08 07:41:36;;;;;;;;;25.25;24.00;;;;;;;;4973263;28;45382;-74
2021/09/08 07:44:01;;;;;;;;;20.50;18.25;;;;;;;;4988568;28;45316;-74
2021/09/08 07:46:26;;;;;;;;;25.50;22.00;;;;;;;;4989385;28;45300;-72
2021/09/08 07:48:51;;;;;;;;;21.75;17.75;;;;;;;;4988887;28;45518;-73
2021/09/08 07:51:17;;;;;;;;;17.75;17.00;;;;;;;;4989068;28;45334;-73
2021/09/08 07:53:42;;;;;;;;;19.50;16.50;;;;;;;;4990744;28;45489;-73
2021/09/08 07:56:08;;;;;;;;;21.25;20.75;;;;;;;;4987142;28;45370;-73
2021/09/08 07:58:33;;;;;;;;;14.50;13.50;;;;;;;;4982025;28;45472;-72
2021/09/08 08:00:58;;;;;;;;;17.25;16.25;;;;;;;;4977550;28;45520;-72
2021/09/08 08:03:23;;;;;;;;;25.25;21.25;;;;;;;;4988253;27;45390;-72
2021/09/08 08:05:48;;;;;;;;;17.25;16.25;;;;;;;;4987378;28;45436;-72
2021/09/08 08:08:14;;;;;;;;;20.50;18.00;;;;;;;;4985883;28;48671;-72
2021/09/08 08:10:40;;;;;;;;;21.50;19.25;;;;;;;;4977308;28;45772;-72
2021/09/08 08:13:05;;;;;;;;;18.75;17.50;;;;;;;;4976525;28;45631;-73
2021/09/08 08:15:30;;;;;;;;;16.50;16.50;;;;;;;;4975679;28;45549;-72
2021/09/08 08:17:56;;;;;;;;;25.25;23.50;;;;;;;;4991027;28;45617;-73
2021/09/08 08:20:21;;;;;;;;;19.50;18.25;;;;;;;;4991996;28;45427;-72
2021/09/08 08:22:46;;;;;;;;;19.25;17.00;;;;;;;;4990832;28;45459;-73
2021/09/08 08:25:13;;;;;;;;;21.25;18.75;;;;;;;;4991243;28;45483;-72
2021/09/08 08:27:39;;;;;;;;;22.75;19.25;;;;;;;;4991417;28;45415;-72
2021/09/08 08:30:04;;;;;;;;;19.75;18.00;;;;;;;;4990719;28;45499;-73
2021/09/08 08:32:30;;;;;;;;;15.75;14.75;;;;;;;;4991345;28;45323;-73
2021/09/08 08:34:55;;;;;;;;;20.75;18.00;;;;;;;;4988843;28;45444;-73
2021/09/08 08:37:20;;;;;;;;;20.25;18.25;;;;;;;;4990027;28;45951;-72
2021/09/08 08:39:45;;;;;;;;;19.75;19.00;;;;;;;;4988436;28;45458;-73
2021/09/08 08:42:18;;;;;;;;;21.75;19.25;;;;;;;;4991254;27;45914;-72
2021/09/08 08:44:44;;;;;;;;;19.25;17.00;;;;;;;;4986213;28;45311;-72
2021/09/08 08:47:10;;;;;;;;;21.00;17.25;;;;;;;;4988335;28;46134;-74
2021/09/08 08:49:35;;;;;;;;;18.50;16.50;;;;;;;;5025514;27;45404;-73
2021/09/08 08:52:00;;;;;;;;;18.00;15.25;;;;;;;;5016036;27;45398;-72
2021/09/08 08:54:25;;;;;;;;;24.50;22.25;;;;;;;;4990339;28;45497;-73
2021/09/08 08:56:52;;;;;;;;;20.75;17.75;;;;;;;;4991155;28;49761;-75
2021/09/08 08:59:17;;;;;;;;;18.50;17.50;;;;;;;;4991022;28;45545;-75
2021/09/08 09:01:42;;;;;;;;;25.75;20.25;;;;;;;;4990440;28;45562;-74
2021/09/08 09:04:09;;;;;;;;;22.75;20.00;;;;;;;;4972003;28;45447;-72
2021/09/08 09:06:36;;;;;;;;;20.50;18.00;;;;;;;;4998418;27;47186;-72
2021/09/08 09:09:03;;;;;;;;;21.75;19.50;;;;;;;;5068692;27;45374;-73
2021/09/08 09:11:28;;;;;;;;;16.50;16.50;;;;;;;;4990856;28;45482;-72
2021/09/08 09:13:54;;;;;;;;;18.00;16.25;;;;;;;;4987101;28;45727;-73
2021/09/08 09:16:22;;;;;;;;;20.50;19.25;;;;;;;;4988828;28;46173;-72
2021/09/08 09:18:47;;;;;;;;;20.25;19.25;;;;;;;;4972230;28;45556;-72
2021/09/08 09:21:14;;;;;;;;;18.25;16.00;;;;;;;;4990260;28;45378;-71
2021/09/08 09:24:08;;;;;;;;;15.00;14.25;;;;;;;;4985442;28;45596;-72
2021/09/08 09:26:35;;;;;;;;;22.50;19.75;;;;;;;;4970950;28;46098;-73
2021/09/08 09:29:18;;;;;;;;;20.00;18.75;;;;;;;;4989142;28;45614;-73
2021/09/08 09:31:49;;;;;;;;;18.00;18.00;;;;;;;;4989688;28;45465;-74
2021/09/08 09:34:14;;;;;;;;;22.50;21.25;;;;;;;;4990400;28;45281;-74
2021/09/08 09:36:39;;;;;;;;;23.75;22.00;;;;;;;;4972260;28;46645;-73
2021/09/08 09:39:05;;;;;;;;;22.50;22.00;;;;;;;;4990784;28;45267;-73
2021/09/08 09:41:31;;;;;;;;;22.00;18.00;;;;;;;;4992475;28;45572;-73
2021/09/08 09:44:04;;;;;;;;;18.75;18.75;;;;;;;;4989824;28;45317;-74
2021/09/08 09:46:29;;;;;;;;;19.75;19.25;;;;;;;;4989826;28;45670;-73
2021/09/08 09:48:54;;;;;;;;;23.00;21.00;;;;;;;;4989474;28;45390;-71
2021/09/08 09:51:20;;;;;;;;;23.25;22.25;;;;;;;;4983670;28;45620;-73
2021/09/08 09:53:45;;;;;;;;;19.50;18.25;;;;;;;;4992381;28;45454;-73
2021/09/08 09:56:12;;;;;;;;;20.75;18.25;;;;;;;;4989730;28;46042;-74
2021/09/08 09:58:38;;;;;;;;;17.00;17.00;;;;;;;;4989508;27;45548;-72
2021/09/08 10:01:04;;;;;;;;;17.00;16.50;;;;;;;;4990029;28;45424;-72
2021/09/08 10:03:29;;;;;;;;;19.00;17.75;;;;;;;;4989996;28;45512;-73
2021/09/08 10:05:55;;;;;;;;;17.50;17.50;;;;;;;;4990797;28;45640;-72
2021/09/08 10:08:21;;;;;;;;;22.50;22.00;;;;;;;;4991485;28;45287;-72
2021/09/08 10:10:49;;;;;;;;;30.25;28.50;;;;;;;;4990403;28;45453;-72
2021/09/08 10:13:22;;;;;;;;;20.00;19.00;;;;;;;;4989622;28;45399;-73
2021/09/08 10:15:50;;;;;;;;;23.00;19.50;;;;;;;;4989467;28;46078;-73
2021/09/08 10:18:19;;;;;;;;;20.00;17.00;;;;;;;;4974223;28;45472;-73
2021/09/08 10:20:44;;;;;;;;;16.25;16.25;;;;;;;;4988708;28;45793;-72
2021/09/08 10:23:10;;;;;;;;;23.75;20.50;;;;;;;;4989717;28;45354;-73
2021/09/08 10:25:36;;;;;;;;;17.00;17.00;;;;;;;;4989969;28;45536;-72
2021/09/08 10:28:03;;;;;;;;;23.25;20.00;;;;;;;;4988342;28;45362;-72
2021/09/08 10:30:28;;;;;;;;;20.50;18.25;;;;;;;;4988777;28;45329;-72
2021/09/08 10:32:54;;;;;;;;;18.25;17.25;;;;;;;;4990372;28;45195;-72
2021/09/08 10:35:21;;;;;;;;;29.25;24.75;;;;;;;;4990372;28;45381;-72
2021/09/08 10:37:50;;;;;;;;;17.00;16.50;;;;;;;;4988595;28;48508;-73
2021/09/08 10:40:17;;;;;;;;;16.00;13.50;;;;;;;;4988990;28;45482;-72
2021/09/08 10:42:45;;;;;;;;;19.00;17.75;;;;;;;;4988901;28;45402;-74
2021/09/08 10:45:17;;;;;;;;;15.75;15.00;;;;;;;;4989039;28;45421;-72
2021/09/08 10:47:43;;;;;;;;;20.75;19.75;;;;;;;;4986777;28;45344;-72
2021/09/08 10:50:09;;;;;;;;;16.75;16.75;;;;;;;;4989458;28;45181;-73
2021/09/08 10:52:34;;;;;;;;;18.00;16.75;;;;;;;;4988434;27;45501;-72
2021/09/08 10:55:01;;;;;;;;;17.00;16.00;;;;;;;;4991705;28;45414;-70
2021/09/08 10:57:42;;;;;;;;;18.50;16.50;;;;;;;;4991243;28;45473;-69
2021/09/08 11:00:10;;;;;;;;;21.75;20.75;;;;;;;;4991076;28;45308;-70
2021/09/08 11:02:39;;;;;;;;;13.25;13.25;;;;;;;;4994137;28;45510;-71
2021/09/08 11:05:05;;;;;;;;;17.50;17.00;;;;;;;;4991805;28;46657;-71
2021/09/08 11:07:31;;;;;;;;;23.00;22.50;;;;;;;;4972510;28;45528;-71
2021/09/08 11:09:56;;;;;;;;;19.50;17.75;;;;;;;;4990676;28;45374;-71
2021/09/08 11:12:23;;;;;;;;;17.50;16.50;;;;;;;;4992072;28;45943;-70
2021/09/08 11:14:51;;;;;;;;;19.75;19.75;;;;;;;;4993175;27;46252;-71
2021/09/08 11:17:24;;;;;;;;;20.25;20.25;;;;;;;;4992133;28;45462;-71
2021/09/08 11:19:51;;;;;;;;;26.00;22.25;;;;;;;;4990629;27;45536;-71
2021/09/08 11:22:17;;;;;;;;;21.50;17.50;;;;;;;;4971441;28;45533;-72
2021/09/08 11:24:42;;;;;;;;;18.75;18.25;;;;;;;;4986754;27;45407;-71
2021/09/08 11:27:08;;;;;;;;;13.50;12.50;;;;;;;;4987895;27;45546;-72
2021/09/08 11:29:34;;;;;;;;;16.50;15.50;;;;;;;;4990803;28;45391;-72
2021/09/08 11:31:59;;;;;;;;;18.00;17.25;;;;;;;;4986822;27;45492;-73
2021/09/08 11:34:25;;;;;;;;;14.50;13.00;;;;;;;;4988944;28;45590;-72
2021/09/08 11:36:52;;;;;;;;;18.00;16.00;;;;;;;;4989642;28;45353;-73
2021/09/08 11:39:17;;;;;;;;;16.25;14.75;;;;;;;;4989109;28;45405;-71
2021/09/08 11:41:54;;;;;;;;;13.75;13.75;;;;;;;;4985373;28;45343;-72
2021/09/08 11:44:19;;;;;;;;;21.25;17.75;;;;;;;;5046654;27;46230;-72
2021/09/08 11:46:45;;;;;;;;;16.50;16.50;;;;;;;;4986295;27;45486;-72
2021/09/08 11:49:14;;;;;;;;;14.50;13.50;;;;;;;;4986733;28;45414;-72
2021/09/08 11:51:40;;;;;;;;;17.00;16.00;;;;;;;;4988156;28;45420;-72
2021/09/08 11:54:07;;;;;;;;;16.50;16.25;;;;;;;;4988287;28;45609;-72
2021/09/08 11:56:33;;;;;;;;;16.25;14.50;;;;;;;;4989440;28;45326;-74
2021/09/08 11:59:00;;;;;;;;;12.50;12.50;;;;;;;;4987267;28;45342;-72
2021/09/08 12:01:30;;;;;;;;;13.00;12.25;;;;;;;;4988085;28;45510;-72
2021/09/08 12:03:57;;;;;;;;;14.25;14.25;;;;;;;;4988325;28;46275;-71
2021/09/08 12:06:23;;;;;;;;;17.75;16.00;;;;;;;;4988794;28;45430;-73
2021/09/08 12:08:50;;;;;;;;;16.75;16.75;;;;;;;;4990121;28;45481;-71
2021/09/08 12:11:34;;;;;;;;;13.00;12.25;;;;;;;;4987170;28;45337;-72
2021/09/08 12:14:18;;;;;;;;;14.50;13.75;;;;;;;;4987831;28;46229;-73
2021/09/08 12:16:44;;;;;;;;;13.50;12.50;;;;;;;;4987622;28;45341;-72
2021/09/08 12:19:13;;;;;;;;;25.00;23.25;;;;;;;;4988323;28;45346;-73
2021/09/08 12:21:38;;;;;;;;;16.75;16.75;;;;;;;;4988623;28;45435;-73
2021/09/08 12:24:22;;;;;;;;;14.25;14.25;;;;;;;;4988818;28;46251;-72
2021/09/08 12:26:47;;;;;;;;;18.00;15.25;;;;;;;;4986471;28;45177;-73
2021/09/08 12:29:12;;;;;;;;;14.25;14.00;;;;;;;;4986761;28;45484;-72
2021/09/08 12:31:47;;;;;;;;;13.75;13.00;;;;;;;;4987178;28;45443;-71
2021/09/08 12:34:12;;;;;;;;;14.00;11.75;;;;;;;;4988151;28;46722;-71
2021/09/08 12:36:37;;;;;;;;;15.50;14.25;;;;;;;;4988120;28;45308;-71
2021/09/08 12:39:13;;;;;;;;;13.00;12.00;;;;;;;;4988126;28;45409;-72
2021/09/08 12:41:50;;;;;;;;;15.75;14.00;;;;;;;;4989798;28;45381;-72
2021/09/08 12:44:24;;;;;;;;;12.75;11.50;;;;;;;;4991362;28;47874;-72
2021/09/08 12:46:49;;;;;;;;;16.00;14.00;;;;;;;;4983671;28;45365;-72
2021/09/08 12:49:22;;;;;;;;;15.00;14.75;;;;;;;;4988272;28;45348;-73
2021/09/08 12:51:48;;;;;;;;;14.00;12.50;;;;;;;;4987972;28;45602;-72
2021/09/08 12:54:14;;;;;;;;;15.50;14.25;;;;;;;;4970416;28;47868;-72
2021/09/08 12:56:40;;;;;;;;;13.75;13.75;;;;;;;;4990186;28;45524;-72
2021/09/08 12:59:05;;;;;;;;;12.75;11.50;;;;;;;;4988007;28;45584;-72
2021/09/08 13:01:30;;;;;;;;;10.50;10.50;;;;;;;;4987882;28;45520;-73
2021/09/08 13:03:56;;;;;;;;;11.50;11.25;;;;;;;;4989577;28;46186;-71
2021/09/08 13:06:21;;;;;;;;;15.00;11.75;;;;;;;;4990023;28;45367;-72
2021/09/08 13:08:46;;;;;;;;;12.75;12.75;;;;;;;;4993293;28;45484;-72
2021/09/08 13:11:11;;;;;;;;;11.50;10.50;;;;;;;;4990606;28;45418;-71
2021/09/08 13:13:37;;;;;;;;;13.25;12.25;;;;;;;;4990216;28;45482;-72
2021/09/08 13:16:03;;;;;;;;;10.75;10.25;;;;;;;;4990355;27;45522;-71
2021/09/08 13:18:28;;;;;;;;;11.25;11.25;;;;;;;;4991650;28;45455;-71
2021/09/08 13:20:53;;;;;;;;;12.00;12.00;;;;;;;;4992308;28;45451;-72
2021/09/08 13:23:19;;;;;;;;;13.25;11.50;;;;;;;;4991501;28;46394;-72
2021/09/08 13:25:45;;;;;;;;;11.75;11.75;;;;;;;;4989839;28;45481;-73
2021/09/08 13:28:10;;;;;;;;;11.50;11.50;;;;;;;;4990488;28;45512;-71
2021/09/08 13:30:35;;;;;;;;;12.00;10.50;;;;;;;;4991229;28;45328;-71
2021/09/08 13:33:00;;;;;;;;;12.50;12.25;;;;;;;;4990776;28;45528;-72
2021/09/08 13:35:25;;;;;;;;;10.25;10.25;;;;;;;;4992788;28;45445;-72
2021/09/08 13:37:51;;;;;;;;;13.25;12.25;;;;;;;;4990726;28;45482;-72
2021/09/08 13:40:16;;;;;;;;;12.75;11.75;;;;;;;;4990564;28;45333;-72
2021/09/08 13:42:42;;;;;;;;;12.75;12.75;;;;;;;;4988607;28;47102;-72
2021/09/08 13:45:07;;;;;;;;;12.75;12.75;;;;;;;;4990201;28;45185;-73
2021/09/08 13:47:33;;;;;;;;;11.50;10.75;;;;;;;;4990356;28;45563;-73
2021/09/08 13:49:58;;;;;;;;;14.00;13.75;;;;;;;;4972715;28;45457;-73
2021/09/08 13:52:23;;;;;;;;;11.00;11.00;;;;;;;;4990296;28;45504;-73
2021/09/08 13:54:48;;;;;;;;;11.75;10.75;;;;;;;;4990120;28;45684;-73
2021/09/08 13:57:14;;;;;;;;;12.25;12.25;;;;;;;;4990234;28;45518;-72
2021/09/08 13:59:39;;;;;;;;;15.00;15.00;;;;;;;;4974877;28;45543;-72
2021/09/08 14:02:04;;;;;;;;;12.25;11.25;;;;;;;;4990019;28;45419;-73
2021/09/08 14:04:30;;;;;;;;;12.75;12.75;;;;;;;;4990118;28;45304;-72
2021/09/08 14:06:55;;;;;;;;;12.50;12.50;;;;;;;;4989999;28;45351;-72
2021/09/08 14:09:20;;;;;;;;;12.25;11.25;;;;;;;;4990309;28;45330;-73